Time;durP1;ratioP1;P1;durP2;ratioP2;P2;SDS_P1;SDS_P2;PMS_P1;PMS_P2;Temp;Humidity;BMP_temperature;BMP_pressure;BME280_temperature;BME280_humidity;BME280_pressure;Samples;Min_cycle;Max_cycle;Signal;HPM_P1;HPM_P2
2022/09/21 00:11:35;;;;;;;9.97;7.83;;;;;;;;;;6254408;22;20468;-91
2022/09/21 00:14:04;;;;;;;9.27;7.20;;;;;;;;;;6231154;23;21035;-91
2022/09/21 00:16:30;;;;;;;14.20;7.93;;;;;;;;;;6230134;23;20390;-92
2022/09/21 00:18:57;;;;;;;13.10;9.83;;;;;;;;;;6230753;23;20424;-91
2022/09/21 00:21:23;;;;;;;12.03;8.80;;;;;;;;;;6234794;23;20400;-91
2022/09/21 00:23:49;;;;;;;16.10;9.30;;;;;;;;;;6235461;23;20390;-91
2022/09/21 00:26:17;;;;;;;12.83;8.83;;;;;;;;;;6262371;23;20406;-91
2022/09/21 00:28:43;;;;;;;10.63;7.47;;;;;;;;;;6244822;22;20440;-90
2022/09/21 00:31:11;;;;;;;5.00;4.80;;;;;;;;;;6271953;22;20420;-90
2022/09/21 00:33:37;;;;;;;5.77;5.30;;;;;;;;;;6258581;22;20382;-90
2022/09/21 00:36:10;;;;;;;6.07;5.53;;;;;;;;;;6256120;23;20431;-90
2022/09/21 00:38:36;;;;;;;9.27;5.33;;;;;;;;;;6229988;23;20151;-90
2022/09/21 00:41:03;;;;;;;9.38;5.47;;;;;;;;;;6230319;23;20428;-90
2022/09/21 00:43:29;;;;;;;6.50;5.83;;;;;;;;;;6229480;23;20252;-90
2022/09/21 00:46:10;;;;;;;7.43;6.00;;;;;;;;;;6230166;23;20393;-90
2022/09/21 00:48:36;;;;;;;6.90;6.18;;;;;;;;;;6233531;23;20481;-90
2022/09/21 00:51:05;;;;;;;7.40;5.80;;;;;;;;;;6228830;23;20175;-90
2022/09/21 00:53:31;;;;;;;7.10;4.87;;;;;;;;;;6229863;23;20424;-90
2022/09/21 00:55:59;;;;;;;5.47;4.70;;;;;;;;;;6228303;23;20543;-91
2022/09/21 00:58:29;;;;;;;6.33;5.60;;;;;;;;;;6238539;23;20401;-89
2022/09/21 01:00:56;;;;;;;5.50;5.07;;;;;;;;;;6228686;23;20390;-90
2022/09/21 01:03:22;;;;;;;5.10;4.73;;;;;;;;;;6236009;23;20162;-89
2022/09/21 01:05:48;;;;;;;6.10;5.50;;;;;;;;;;6235547;23;20393;-90
2022/09/21 01:08:15;;;;;;;5.67;5.23;;;;;;;;;;6229190;23;20895;-90
2022/09/21 01:10:44;;;;;;;4.40;4.20;;;;;;;;;;6220329;23;20460;-90
2022/09/21 01:13:10;;;;;;;5.47;5.00;;;;;;;;;;6220941;23;20811;-90
2022/09/21 01:15:44;;;;;;;5.60;5.20;;;;;;;;;;6218137;23;20389;-90
2022/09/21 01:18:10;;;;;;;7.10;6.35;;;;;;;;;;6220656;23;20373;-90
2022/09/21 01:20:55;;;;;;;6.23;5.70;;;;;;;;;;6221526;23;20165;-89
2022/09/21 01:23:21;;;;;;;14.57;7.27;;;;;;;;;;6222257;23;20706;-89
2022/09/21 01:26:02;;;;;;;19.67;7.30;;;;;;;;;;6254040;23;20378;-90
2022/09/21 01:28:47;;;;;;;13.37;6.90;;;;;;;;;;6223066;23;20378;-90
2022/09/21 01:31:16;;;;;;;10.23;7.20;;;;;;;;;;6223277;23;20429;-90
2022/09/21 01:33:45;;;;;;;23.27;7.63;;;;;;;;;;6226130;23;20401;-90
2022/09/21 01:36:14;;;;;;;15.27;7.70;;;;;;;;;;6229640;23;20381;-90
2022/09/21 01:38:44;;;;;;;12.23;7.63;;;;;;;;;;6223589;23;20162;-89
2022/09/21 01:41:12;;;;;;;13.57;8.80;;;;;;;;;;6220510;23;20888;-90
2022/09/21 01:43:41;;;;;;;10.38;7.32;;;;;;;;;;6220520;23;20181;-90
2022/09/21 01:46:12;;;;;;;7.30;6.80;;;;;;;;;;6223398;23;20162;-90
2022/09/21 01:48:39;;;;;;;11.38;6.90;;;;;;;;;;6252914;23;20389;-89
2022/09/21 01:51:08;;;;;;;7.30;6.80;;;;;;;;;;6225484;23;20182;-90
2022/09/21 01:53:41;;;;;;;9.63;7.10;;;;;;;;;;6225956;23;20469;-90
2022/09/21 01:56:12;;;;;;;6.17;5.77;;;;;;;;;;6227625;23;20404;-91
2022/09/21 01:58:44;;;;;;;7.30;6.17;;;;;;;;;;6228406;23;20382;-90
2022/09/21 02:01:14;;;;;;;6.07;5.53;;;;;;;;;;6221629;23;20702;-89
2022/09/21 02:03:46;;;;;;;6.77;6.27;;;;;;;;;;6224856;23;20968;-90
2022/09/21 02:06:14;;;;;;;6.50;5.80;;;;;;;;;;6250038;23;20377;-90
2022/09/21 02:08:40;;;;;;;5.37;4.87;;;;;;;;;;6228227;23;20405;-90
2022/09/21 02:11:12;;;;;;;5.97;5.47;;;;;;;;;;6225736;23;20469;-90
2022/09/21 02:13:41;;;;;;;5.63;4.90;;;;;;;;;;6225431;23;20404;-90
2022/09/21 02:16:07;;;;;;;6.60;6.10;;;;;;;;;;6221735;23;20161;-90
2022/09/21 02:18:56;;;;;;;5.67;5.33;;;;;;;;;;6224694;23;20431;-90
2022/09/21 02:21:30;;;;;;;5.77;4.80;;;;;;;;;;6205536;23;20400;-90
2022/09/21 02:24:08;;;;;;;5.05;4.72;;;;;;;;;;6224606;23;20716;-89
2022/09/21 02:26:38;;;;;;;3.50;3.43;;;;;;;;;;6223089;23;20143;-90
2022/09/21 02:29:18;;;;;;;5.20;4.90;;;;;;;;;;6225951;23;20370;-91
2022/09/21 02:34:49;;;;;;;24.75;5.72;;;;;;;;;;6217947;22;20453;-89
2022/09/21 02:37:24;;;;;;;4.57;4.10;;;;;;;;;;6221535;23;20161;-91
2022/09/21 02:39:53;;;;;;;3.72;3.63;;;;;;;;;;6222018;23;20163;-90
2022/09/21 02:42:23;;;;;;;3.80;3.53;;;;;;;;;;6224126;23;20151;-90
2022/09/21 02:44:56;;;;;;;4.03;3.83;;;;;;;;;;6219971;23;20397;-90
2022/09/21 02:47:26;;;;;;;3.87;3.73;;;;;;;;;;6222411;23;20880;-90
2022/09/21 02:49:54;;;;;;;5.47;3.73;;;;;;;;;;6215961;23;20394;-91
2022/09/21 02:52:24;;;;;;;3.78;3.53;;;;;;;;;;6219082;23;20509;-90
2022/09/21 02:54:55;;;;;;;3.97;2.93;;;;;;;;;;6222153;23;20552;-90
2022/09/21 02:57:22;;;;;;;3.90;3.70;;;;;;;;;;6235013;23;20378;-90
2022/09/21 02:59:49;;;;;;;3.72;3.40;;;;;;;;;;6241598;23;20421;-89
2022/09/21 03:02:15;;;;;;;3.08;2.97;;;;;;;;;;6225559;23;20202;-90
2022/09/21 03:14:23;;;;;;;6.00;5.60;;;;;;;;;;6254936;23;20137;-88
2022/09/21 03:22:59;;;;;;;4.77;4.47;;;;;;;;;;6255860;23;20384;-90
2022/09/21 03:25:25;;;;;;;7.83;4.87;;;;;;;;;;6267035;22;20346;-90
2022/09/21 03:27:57;;;;;;;5.60;5.00;;;;;;;;;;6271938;22;20392;-90
2022/09/21 03:30:23;;;;;;;4.95;4.38;;;;;;;;;;6263405;22;20412;-88
2022/09/21 03:32:50;;;;;;;5.50;5.20;;;;;;;;;;6259224;23;20154;-91
2022/09/21 03:47:30;;;;;;;4.18;3.97;;;;;;;;;;6251338;23;20152;-90
2022/09/21 03:56:04;;;;;;;3.63;3.42;;;;;;;;;;6253081;23;20145;-90
2022/09/21 03:58:30;;;;;;;3.80;3.55;;;;;;;;;;6252066;23;20745;-91
2022/09/21 04:01:00;;;;;;;4.07;3.97;;;;;;;;;;6262015;22;20150;-90
2022/09/21 04:03:28;;;;;;;8.13;4.00;;;;;;;;;;6272059;23;20520;-90
2022/09/21 04:05:55;;;;;;;3.78;3.58;;;;;;;;;;6270109;23;20184;-91
2022/09/21 04:08:32;;;;;;;4.30;4.20;;;;;;;;;;6271576;23;20151;-90
2022/09/21 04:10:58;;;;;;;5.60;5.13;;;;;;;;;;6268520;22;20206;-87
2022/09/21 04:13:25;;;;;;;7.32;4.93;;;;;;;;;;6269825;22;20210;-92
2022/09/21 04:15:51;;;;;;;4.80;4.45;;;;;;;;;;6267073;23;20182;-93
2022/09/21 04:18:17;;;;;;;6.47;5.77;;;;;;;;;;6268184;23;20159;-93
2022/09/21 04:20:43;;;;;;;6.20;4.95;;;;;;;;;;6264879;23;20792;-93
2022/09/21 04:23:09;;;;;;;5.15;4.90;;;;;;;;;;6269415;23;20145;-92
2022/09/21 04:25:43;;;;;;;5.07;4.70;;;;;;;;;;6265406;23;20188;-92
2022/09/21 04:28:14;;;;;;;8.85;5.32;;;;;;;;;;6266574;23;20157;-93
2022/09/21 04:30:42;;;;;;;8.75;5.28;;;;;;;;;;6266312;23;20178;-91
2022/09/21 04:33:11;;;;;;;3.57;3.37;;;;;;;;;;6269516;23;20185;-93
2022/09/21 04:35:48;;;;;;;4.80;4.40;;;;;;;;;;6267625;23;20373;-90
2022/09/21 04:38:14;;;;;;;4.90;4.60;;;;;;;;;;6265254;23;20161;-84
2022/09/21 04:46:51;;;;;;;4.82;4.30;;;;;;;;;;6268014;23;20142;-92
2022/09/21 04:49:26;;;;;;;5.20;4.68;;;;;;;;;;6267055;23;20134;-91
2022/09/21 04:51:55;;;;;;;4.97;4.38;;;;;;;;;;6262603;23;20271;-91
2022/09/21 04:54:31;;;;;;;4.25;3.90;;;;;;;;;;6269649;22;20209;-92
2022/09/21 04:57:00;;;;;;;5.38;4.80;;;;;;;;;;6264971;22;20130;-91
2022/09/21 04:59:26;;;;;;;4.78;4.57;;;;;;;;;;6255954;22;20190;-90
2022/09/21 05:01:52;;;;;;;8.07;4.70;;;;;;;;;;6240829;22;20208;-92
2022/09/21 05:04:18;;;;;;;4.63;4.25;;;;;;;;;;6269944;22;20406;-93
2022/09/21 05:06:44;;;;;;;5.20;4.90;;;;;;;;;;6238324;23;20310;-89
2022/09/21 05:11:55;;;;;;;6.20;5.60;;;;;;;;;;6266540;23;20432;-93
2022/09/21 05:14:21;;;;;;;10.25;5.88;;;;;;;;;;6238696;23;20411;-89
2022/09/21 05:23:25;;;;;;;6.13;5.63;;;;;;;;;;6265581;23;20153;-93
2022/09/21 05:38:39;;;;;;;6.00;5.60;;;;;;;;;;6241078;23;20396;-88
2022/09/21 05:47:19;;;;;;;7.03;6.43;;;;;;;;;;6233823;23;20197;-94
2022/09/21 05:50:04;;;;;;;7.25;6.75;;;;;;;;;;6228438;23;20146;-92
2022/09/21 05:52:49;;;;;;;6.72;6.22;;;;;;;;;;6253078;23;20178;-94
2022/09/21 05:55:38;;;;;;;5.70;5.20;;;;;;;;;;6232942;23;20151;-91
2022/09/21 05:58:25;;;;;;;6.03;5.53;;;;;;;;;;6233143;23;20941;-92
2022/09/21 06:01:09;;;;;;;7.00;6.40;;;;;;;;;;6217045;23;20369;-90
2022/09/21 06:11:49;;;;;;;5.43;5.00;;;;;;;;;;6199172;23;20454;-90
2022/09/21 06:26:26;;;;;;;4.87;4.37;;;;;;;;;;6222517;23;20384;-92
2022/09/21 06:29:00;;;;;;;4.50;4.30;;;;;;;;;;6217395;23;20409;-91
2022/09/21 06:31:36;;;;;;;;;;;;;;;;;;;;;
2022/09/21 06:34:49;;;;;;;;;;;;;;;;;;;;;
2022/09/21 06:43:01;;;;;;;5.50;5.07;;;;;;;;;;6224888;22;20449;-89
2022/09/21 06:45:37;;;;;;;4.80;4.60;;;;;;;;;;6238842;23;20393;-91
2022/09/21 06:48:09;;;;;;;7.17;5.40;;;;;;;;;;6236591;23;20446;-91
2022/09/21 06:50:36;;;;;;;4.93;4.70;;;;;;;;;;6234454;23;20370;-88
2022/09/21 06:53:02;;;;;;;5.37;5.07;;;;;;;;;;6230169;23;20394;-87
2022/09/21 06:55:33;;;;;;;6.10;5.60;;;;;;;;;;6229123;23;20387;-91
2022/09/21 06:58:03;;;;;;;5.23;5.00;;;;;;;;;;6229375;23;20822;-86
2022/09/21 07:00:32;;;;;;;10.53;4.33;;;;;;;;;;6221554;23;20378;-90
2022/09/21 07:03:01;;;;;;;4.70;4.50;;;;;;;;;;6222453;23;20394;-90
2022/09/21 07:05:39;;;;;;;5.40;5.10;;;;;;;;;;6226921;23;20373;-92
2022/09/21 07:08:06;;;;;;;5.43;5.20;;;;;;;;;;6218328;23;20390;-90
2022/09/21 07:10:33;;;;;;;5.77;5.27;;;;;;;;;;6217054;23;20446;-89
2022/09/21 07:13:03;;;;;;;5.67;5.13;;;;;;;;;;6215898;23;20648;-92
2022/09/21 07:15:32;;;;;;;4.40;4.30;;;;;;;;;;6218751;23;20391;-91
2022/09/21 07:18:03;;;;;;;4.77;4.57;;;;;;;;;;6216379;23;20390;-91
2022/09/21 07:20:30;;;;;;;5.90;5.40;;;;;;;;;;6184190;23;20398;-92
2022/09/21 07:22:57;;;;;;;6.23;5.80;;;;;;;;;;6184961;23;20438;-90
2022/09/21 07:25:23;;;;;;;4.73;4.53;;;;;;;;;;6181885;23;20771;-92
2022/09/21 07:27:49;;;;;;;5.73;5.40;;;;;;;;;;6183394;23;20391;-92
2022/09/21 07:30:22;;;;;;;5.30;5.00;;;;;;;;;;6184379;23;20476;-92
2022/09/21 07:32:57;;;;;;;5.17;4.90;;;;;;;;;;6180703;23;20542;-92
2022/09/21 07:35:23;;;;;;;5.50;5.20;;;;;;;;;;6190706;23;20352;-88
2022/09/21 07:37:49;;;;;;;4.50;4.30;;;;;;;;;;6183465;23;20402;-89
2022/09/21 07:40:20;;;;;;;5.30;5.00;;;;;;;;;;6188353;23;20398;-89
2022/09/21 07:42:47;;;;;;;5.73;5.27;;;;;;;;;;6189679;23;20411;-91
2022/09/21 07:45:15;;;;;;;6.07;5.60;;;;;;;;;;6205055;23;20443;-92
2022/09/21 07:47:41;;;;;;;6.90;6.30;;;;;;;;;;6197364;23;20411;-92
2022/09/21 07:50:11;;;;;;;6.83;6.23;;;;;;;;;;6181833;23;20609;-92
2022/09/21 07:52:37;;;;;;;5.33;5.00;;;;;;;;;;6178641;23;20437;-92
2022/09/21 07:55:03;;;;;;;4.53;4.33;;;;;;;;;;6182245;23;20843;-92
2022/09/21 08:00:17;;;;;;;5.30;5.00;;;;;;;;;;6182790;23;20390;-91
2022/09/21 08:02:44;;;;;;;4.80;4.57;;;;;;;;;;6185920;23;20410;-91
2022/09/21 08:05:10;;;;;;;4.80;4.50;;;;;;;;;;6181255;23;20436;-91
2022/09/21 08:07:36;;;;;;;6.60;5.63;;;;;;;;;;6156861;23;20402;-90
2022/09/21 08:10:02;;;;;;;4.97;4.70;;;;;;;;;;6181172;23;20839;-92
2022/09/21 08:12:28;;;;;;;5.20;4.90;;;;;;;;;;6157167;23;20444;-92
2022/09/21 08:14:57;;;;;;;6.03;5.73;;;;;;;;;;6182299;23;20419;-92
2022/09/21 08:21:04;;;;;;;5.17;4.50;;;;;;;;;;6187003;23;20405;-90
2022/09/21 08:29:37;;;;;;;6.87;6.30;;;;;;;;;;6191348;23;20389;-92
2022/09/21 09:27:30;;;;;;;2.07;1.97;;;;;;;;;;6181863;23;21001;-89
2022/09/21 09:30:05;;;;;;;4.00;2.43;;;;;;;;;;6155314;23;20387;-90
2022/09/21 09:32:34;;;;;;;3.00;2.80;;;;;;;;;;6155902;23;20742;-88
2022/09/21 09:35:38;;;;;;;2.67;2.47;;;;;;;;;;6153037;23;20799;-89
2022/09/21 09:38:25;;;;;;;3.03;1.43;;;;;;;;;;6008358;23;20372;-89
2022/09/21 09:40:56;;;;;;;4.43;2.17;;;;;;;;;;6007087;23;20375;-86
2022/09/21 09:43:39;;;;;;;2.13;1.50;;;;;;;;;;6104586;23;20856;-88
2022/09/21 09:49:12;;;;;;;1.13;1.13;;;;;;;;;;6181637;23;20351;-90
2022/09/21 09:57:46;;;;;;;1.00;1.00;;;;;;;;;;6181418;23;20386;-88
2022/09/21 10:00:13;;;;;;;17.93;3.67;;;;;;;;;;6154402;23;20399;-90
2022/09/21 10:02:53;;;;;;;5.73;2.07;;;;;;;;;;6158713;23;20426;-89
2022/09/21 10:05:21;;;;;;;1.40;1.30;;;;;;;;;;6152002;23;20771;-89
2022/09/21 10:07:47;;;;;;;4.70;1.77;;;;;;;;;;6174275;23;20744;-88
2022/09/21 10:10:22;;;;;;;2.13;1.57;;;;;;;;;;6151076;23;20419;-88
2022/09/21 10:12:49;;;;;;;1.83;0.93;;;;;;;;;;6174482;23;20599;-88
2022/09/21 10:15:17;;;;;;;1.20;1.20;;;;;;;;;;6209330;23;20405;-87
2022/09/21 10:17:45;;;;;;;1.67;1.13;;;;;;;;;;6210030;23;20858;-88
2022/09/21 10:20:24;;;;;;;2.13;0.90;;;;;;;;;;6209037;23;20422;-89
2022/09/21 10:22:54;;;;;;;2.20;1.80;;;;;;;;;;6211275;23;20746;-88
2022/09/21 10:25:20;;;;;;;2.37;1.57;;;;;;;;;;6207637;23;20394;-88
2022/09/21 10:27:50;;;;;;;1.50;1.40;;;;;;;;;;6215765;23;20409;-88
2022/09/21 10:30:33;;;;;;;1.80;1.80;;;;;;;;;;6210083;23;20355;-87
2022/09/21 10:33:00;;;;;;;2.53;2.03;;;;;;;;;;6207730;23;20398;-86
2022/09/21 10:35:26;;;;;;;1.60;1.60;;;;;;;;;;6205437;23;20498;-87
2022/09/21 10:38:12;;;;;;;1.73;1.63;;;;;;;;;;6209240;23;20366;-88
2022/09/21 10:40:38;;;;;;;3.23;2.07;;;;;;;;;;6207586;23;20381;-87
2022/09/21 10:43:05;;;;;;;2.07;1.50;;;;;;;;;;6208204;23;20430;-89
2022/09/21 10:45:33;;;;;;;4.20;2.43;;;;;;;;;;6205696;23;20398;-89
2022/09/21 10:48:05;;;;;;;2.00;1.23;;;;;;;;;;6206599;23;20393;-88
2022/09/21 10:50:34;;;;;;;6.43;1.70;;;;;;;;;;6205637;23;20494;-87
2022/09/21 10:53:10;;;;;;;1.57;1.50;;;;;;;;;;6209005;23;20476;-86
2022/09/21 10:55:38;;;;;;;1.13;1.13;;;;;;;;;;6206831;23;20428;-88
2022/09/21 10:58:08;;;;;;;2.53;1.40;;;;;;;;;;6208383;23;20390;-89
2022/09/21 11:00:40;;;;;;;2.50;1.00;;;;;;;;;;6203385;23;20407;-88
2022/09/21 11:28:42;;;;;;;3.20;1.10;;;;;;;;;;6184784;23;20343;-87
2022/09/21 11:31:14;;;;;;;2.37;1.63;;;;;;;;;;6180315;23;20468;-88
2022/09/21 11:33:59;;;;;;;0.90;0.90;;;;;;;;;;6180976;23;20474;-90
2022/09/21 11:36:31;;;;;;;1.53;1.07;;;;;;;;;;6179884;23;20881;-90
2022/09/21 11:39:16;;;;;;;1.30;0.90;;;;;;;;;;6185541;23;20394;-90
2022/09/21 11:41:48;;;;;;;1.13;0.77;;;;;;;;;;6197221;23;20521;-88
2022/09/21 11:44:31;;;;;;;2.93;1.90;;;;;;;;;;6187269;23;20360;-90
2022/09/21 11:47:20;;;;;;;1.90;0.93;;;;;;;;;;6179887;23;20371;-88
2022/09/21 11:49:49;;;;;;;1.43;1.20;;;;;;;;;;6181404;23;20426;-87
2022/09/21 11:52:23;;;;;;;1.03;1.03;;;;;;;;;;6190790;22;20419;-89
2022/09/21 11:55:08;;;;;;;2.13;1.03;;;;;;;;;;6183619;23;20390;-91
2022/09/21 11:57:37;;;;;;;1.60;1.23;;;;;;;;;;6190260;23;20391;-89
2022/09/21 12:00:17;;;;;;;;;;;;;;;;;;;;;
2022/09/21 12:03:02;;;;;;;1.63;1.30;;;;;;;;;;6165094;23;20378;-91
2022/09/21 12:05:47;;;;;;;1.80;1.70;;;;;;;;;;6191784;23;20391;-92
2022/09/21 12:08:24;;;;;;;3.40;1.80;;;;;;;;;;6155561;23;20393;-92
2022/09/21 12:11:06;;;;;;;1.80;1.70;;;;;;;;;;6159765;23;20499;-89
2022/09/21 12:13:53;;;;;;;1.47;1.47;;;;;;;;;;6191804;23;20425;-91
2022/09/21 12:16:26;;;;;;;1.50;1.50;;;;;;;;;;6213684;23;20410;-93
2022/09/21 12:19:06;;;;;;;1.17;0.90;;;;;;;;;;6212861;23;20382;-89
2022/09/21 12:21:46;;;;;;;1.47;1.07;;;;;;;;;;6213241;23;20373;-91
2022/09/21 12:24:22;;;;;;;3.57;1.50;;;;;;;;;;6215458;23;20393;-90
2022/09/21 12:27:01;;;;;;;1.27;1.17;;;;;;;;;;6217147;23;20375;-89
2022/09/21 12:29:42;;;;;;;1.37;1.37;;;;;;;;;;6215916;23;20383;-88
2022/09/21 12:32:26;;;;;;;0.97;0.93;;;;;;;;;;6225225;23;20486;-90
2022/09/21 12:35:04;;;;;;;1.10;1.10;;;;;;;;;;6229075;23;20354;-91
2022/09/21 12:37:57;;;;;;;1.53;1.20;;;;;;;;;;6192910;23;20504;-88
2022/09/21 12:40:33;;;;;;;1.33;1.33;;;;;;;;;;6211202;23;20720;-90
2022/09/21 12:45:53;;;;;;;1.77;1.50;;;;;;;;;;6184887;23;20498;-90
2022/09/21 12:48:19;;;;;;;1.20;1.20;;;;;;;;;;6160766;23;20400;-91
2022/09/21 12:50:55;;;;;;;1.77;1.10;;;;;;;;;;6156026;23;20466;-89
2022/09/21 12:53:24;;;;;;;1.30;1.30;;;;;;;;;;6155976;23;20403;-92
2022/09/21 12:56:12;;;;;;;1.20;1.20;;;;;;;;;;6161343;23;20403;-90
2022/09/21 12:58:53;;;;;;;1.20;1.13;;;;;;;;;;6154580;23;20545;-90
2022/09/21 13:01:25;;;;;;;1.00;1.00;;;;;;;;;;6180219;23;20387;-89
2022/09/21 13:04:18;;;;;;;1.00;1.00;;;;;;;;;;6182496;23;20858;-88
2022/09/21 13:06:56;;;;;;;4.17;1.50;;;;;;;;;;6131522;23;20445;-90
2022/09/21 13:09:24;;;;;;;3.73;2.30;;;;;;;;;;6180537;23;20910;-90
2022/09/21 13:11:50;;;;;;;2.73;2.17;;;;;;;;;;6149582;23;20423;-88
2022/09/21 13:14:17;;;;;;;3.97;2.13;;;;;;;;;;6154122;23;20395;-90
2022/09/21 13:16:43;;;;;;;1.67;1.00;;;;;;;;;;6150646;23;21032;-90
2022/09/21 13:19:21;;;;;;;1.10;0.87;;;;;;;;;;6153935;23;20735;-90
2022/09/21 13:22:11;;;;;;;2.00;1.00;;;;;;;;;;6159704;23;20387;-89
2022/09/21 13:24:38;;;;;;;0.70;0.70;;;;;;;;;;6164831;23;20379;-90
2022/09/21 13:27:06;;;;;;;1.23;1.13;;;;;;;;;;6186026;23;20423;-92
2022/09/21 13:29:36;;;;;;;0.97;0.97;;;;;;;;;;6163934;23;20406;-92
2022/09/21 13:32:03;;;;;;;3.57;1.53;;;;;;;;;;6167120;23;20430;-91
2022/09/21 13:34:34;;;;;;;2.83;1.27;;;;;;;;;;6170176;23;20410;-90
2022/09/21 13:37:12;;;;;;;3.33;2.80;;;;;;;;;;6166606;23;20398;-88
2022/09/21 13:40:14;;;;;;;1.00;1.00;;;;;;;;;;6166979;23;20744;-87
2022/09/21 13:42:43;;;;;;;1.20;1.10;;;;;;;;;;6169057;23;20375;-88
2022/09/21 13:45:12;;;;;;;8.53;7.67;;;;;;;;;;6194374;23;20471;-89
2022/09/21 13:47:40;;;;;;;1.00;1.00;;;;;;;;;;6169683;23;21062;-91
2022/09/21 13:50:23;;;;;;;1.70;1.70;;;;;;;;;;6171120;23;20402;-89
2022/09/21 13:52:52;;;;;;;0.97;0.97;;;;;;;;;;6164996;23;20454;-89
2022/09/21 13:55:21;;;;;;;1.07;1.07;;;;;;;;;;6164249;23;20387;-90
2022/09/21 13:57:49;;;;;;;3.93;0.90;;;;;;;;;;6172639;23;20394;-88
2022/09/21 14:00:18;;;;;;;0.80;0.80;;;;;;;;;;6170392;23;20410;-91
2022/09/21 14:02:53;;;;;;;3.07;1.50;;;;;;;;;;6174001;23;20363;-90
2022/09/21 14:05:38;;;;;;;2.43;2.23;;;;;;;;;;6177696;23;20390;-90
2022/09/21 14:08:06;;;;;;;4.90;2.30;;;;;;;;;;6175122;23;20508;-88
2022/09/21 14:10:35;;;;;;;2.87;1.43;;;;;;;;;;6166583;23;20382;-89
2022/09/21 14:13:01;;;;;;;1.87;1.53;;;;;;;;;;6172007;23;20415;-91
2022/09/21 14:15:38;;;;;;;1.37;1.37;;;;;;;;;;6194284;23;20395;-89
2022/09/21 14:18:20;;;;;;;1.93;1.83;;;;;;;;;;6172948;23;20474;-91
2022/09/21 14:29:10;;;;;;;1.67;1.60;;;;;;;;;;6235191;22;20453;-88
2022/09/21 14:31:56;;;;;;;1.83;1.40;;;;;;;;;;6211451;23;20429;-90
2022/09/21 14:37:37;;;;;;;1.70;1.60;;;;;;;;;;6189323;23;20401;-91
2022/09/21 14:43:20;;;;;;;1.20;1.20;;;;;;;;;;6079964;23;20394;-88
2022/09/21 14:46:01;;;;;;;2.97;2.87;;;;;;;;;;6202441;23;20399;-88
2022/09/21 14:48:36;;;;;;;1.80;1.73;;;;;;;;;;6204080;23;20453;-88
2022/09/21 14:51:21;;;;;;;2.77;2.57;;;;;;;;;;6203762;23;20508;-89
2022/09/21 14:54:02;;;;;;;2.73;1.30;;;;;;;;;;6204017;23;20398;-90
2022/09/21 14:56:32;;;;;;;2.33;2.23;;;;;;;;;;6201040;23;20401;-87
2022/09/21 14:59:34;;;;;;;2.00;1.97;;;;;;;;;;6203096;23;20446;-91
2022/09/21 15:02:02;;;;;;;2.60;2.53;;;;;;;;;;6106796;23;20401;-89
2022/09/21 15:05:03;;;;;;;2.87;1.83;;;;;;;;;;6205194;23;20378;-91
2022/09/21 15:11:18;;;;;;;5.73;1.87;;;;;;;;;;6223472;23;20416;-91
2022/09/21 15:13:57;;;;;;;3.17;1.77;;;;;;;;;;6180452;23;20533;-91
2022/09/21 15:16:49;;;;;;;1.90;1.90;;;;;;;;;;6233152;23;20408;-91
2022/09/21 15:19:17;;;;;;;1.87;1.73;;;;;;;;;;6214595;23;20381;-91
2022/09/21 15:22:12;;;;;;;;;;;;;;;;;;;;;
2022/09/21 15:25:11;;;;;;;1.43;1.43;;;;;;;;;;6261811;23;20369;-89
2022/09/21 15:27:51;;;;;;;2.73;2.13;;;;;;;;;;6205686;23;20419;-92
2022/09/21 15:30:24;;;;;;;1.80;1.80;;;;;;;;;;6257591;23;20431;-89
2022/09/21 15:32:53;;;;;;;2.67;2.30;;;;;;;;;;6232997;23;20410;-91
2022/09/21 15:35:26;;;;;;;3.22;2.08;;;;;;;;;;6268078;22;20765;-88
2022/09/21 15:37:57;;;;;;;4.17;2.80;;;;;;;;;;6237776;23;20202;-90
2022/09/21 15:43:41;;;;;;;2.70;1.80;;;;;;;;;;6243432;23;20403;-90
2022/09/21 15:46:21;;;;;;;;;;;;;;;;;;;;;
2022/09/21 15:48:51;;;;;;;2.10;2.00;;;;;;;;;;6252912;23;20384;-89
2022/09/21 15:51:27;;;;;;;2.70;2.50;;;;;;;;;;6233342;23;20448;-90
2022/09/21 15:54:06;;;;;;;2.60;2.50;;;;;;;;;;6235091;23;20372;-91
2022/09/21 15:56:55;;;;;;;3.93;2.30;;;;;;;;;;6261117;23;20418;-91
2022/09/21 15:59:29;;;;;;;1.87;1.77;;;;;;;;;;6230796;23;20409;-89
2022/09/21 16:02:03;;;;;;;2.30;2.27;;;;;;;;;;6232254;23;20473;-90
2022/09/21 16:04:32;;;;;;;2.17;2.03;;;;;;;;;;6234317;23;20456;-92
2022/09/21 16:06:59;;;;;;;2.60;2.40;;;;;;;;;;6229056;23;20420;-88
2022/09/21 16:09:54;;;;;;;2.63;1.77;;;;;;;;;;6235508;22;20390;-88
2022/09/21 16:12:26;;;;;;;2.13;2.00;;;;;;;;;;6234758;23;20425;-89
2022/09/21 16:14:53;;;;;;;2.53;2.27;;;;;;;;;;6237437;23;20421;-88
2022/09/21 16:17:24;;;;;;;4.13;2.30;;;;;;;;;;6253684;23;20531;-88
2022/09/21 16:19:52;;;;;;;4.00;2.57;;;;;;;;;;6226688;23;20389;-90
2022/09/21 16:22:30;;;;;;;1.90;1.70;;;;;;;;;;6257664;23;20374;-86
2022/09/21 16:25:00;;;;;;;1.93;1.70;;;;;;;;;;6230430;23;20413;-90
2022/09/21 16:27:31;;;;;;;1.57;1.50;;;;;;;;;;6225620;23;20397;-90
2022/09/21 16:30:07;;;;;;;4.30;2.53;;;;;;;;;;6232167;23;20413;-90
2022/09/21 16:32:33;;;;;;;2.43;2.33;;;;;;;;;;6197344;23;20459;-88
2022/09/21 16:35:18;;;;;;;3.00;2.43;;;;;;;;;;6191218;23;20846;-91
2022/09/21 16:37:44;;;;;;;5.33;2.20;;;;;;;;;;6186604;23;20422;-90
2022/09/21 16:40:22;;;;;;;2.60;2.40;;;;;;;;;;6188160;23;20381;-88
2022/09/21 16:42:53;;;;;;;2.80;2.60;;;;;;;;;;6213174;23;20374;-88
2022/09/21 16:45:24;;;;;;;2.53;2.40;;;;;;;;;;6211727;23;20714;-89
2022/09/21 16:47:52;;;;;;;4.20;2.67;;;;;;;;;;6211237;23;20386;-89
2022/09/21 16:50:19;;;;;;;2.30;2.20;;;;;;;;;;6186483;23;20382;-86
2022/09/21 16:52:47;;;;;;;2.50;2.40;;;;;;;;;;6207578;23;21067;-87
2022/09/21 16:55:19;;;;;;;4.00;2.97;;;;;;;;;;6209548;23;20394;-87
2022/09/21 16:57:47;;;;;;;3.00;2.70;;;;;;;;;;6206662;23;20407;-88
2022/09/21 17:00:43;;;;;;;2.60;2.40;;;;;;;;;;6207706;23;20449;-87
2022/09/21 17:03:14;;;;;;;2.97;1.80;;;;;;;;;;6209942;23;20880;-88
2022/09/21 17:05:43;;;;;;;6.50;3.60;;;;;;;;;;6184278;23;20390;-88
2022/09/21 17:08:12;;;;;;;5.27;3.00;;;;;;;;;;6211406;23;20689;-89
2022/09/21 17:10:45;;;;;;;2.90;2.80;;;;;;;;;;6182949;23;20397;-87
2022/09/21 17:13:15;;;;;;;4.67;3.83;;;;;;;;;;6186346;23;20949;-88
2022/09/21 17:15:53;;;;;;;2.97;2.70;;;;;;;;;;6188144;23;20398;-90
2022/09/21 17:24:47;;;;;;;6.63;2.70;;;;;;;;;;6221691;23;20385;-89
2022/09/21 17:37:44;;;;;;;2.60;2.40;;;;;;;;;;6213830;22;20769;-89
2022/09/21 17:40:11;;;;;;;2.93;2.77;;;;;;;;;;6185764;23;20389;-88
2022/09/21 17:42:43;;;;;;;2.70;2.50;;;;;;;;;;6209075;23;20705;-90
2022/09/21 17:45:16;;;;;;;3.10;2.80;;;;;;;;;;6191505;23;20403;-89
2022/09/21 17:47:49;;;;;;;3.20;2.60;;;;;;;;;;6216446;23;20390;-90
2022/09/21 17:50:30;;;;;;;4.10;2.57;;;;;;;;;;6191783;23;20395;-90
2022/09/21 17:55:58;;;;;;;2.70;2.60;;;;;;;;;;6226688;23;20477;-91
2022/09/21 17:59:13;;;;;;;;;;;;;;;;;;;;;
2022/09/21 18:02:03;;;;;;;2.90;2.70;;;;;;;;;;6185056;23;20418;-91
2022/09/21 18:07:21;;;;;;;4.47;4.10;;;;;;;;;;6224536;22;20437;-91
2022/09/21 20:02:20;;;;;;;5.33;4.93;;;;;;;;;;6181797;23;20458;-88
2022/09/21 20:04:48;;;;;;;4.27;4.07;;;;;;;;;;6189777;23;20394;-88
2022/09/21 20:07:24;;;;;;;4.13;3.67;;;;;;;;;;6173135;23;20448;-88
2022/09/21 20:09:58;;;;;;;6.90;4.17;;;;;;;;;;6180877;23;20438;-85
2022/09/21 20:12:31;;;;;;;4.60;4.40;;;;;;;;;;6169252;23;20469;-88
2022/09/21 20:14:59;;;;;;;5.63;5.10;;;;;;;;;;6166553;23;20570;-89
2022/09/21 20:17:39;;;;;;;5.80;5.30;;;;;;;;;;6167271;23;20384;-90
2022/09/21 20:20:12;;;;;;;4.53;4.13;;;;;;;;;;6172237;23;20383;-89
2022/09/21 20:22:39;;;;;;;4.07;3.80;;;;;;;;;;6172288;23;20376;-90
2022/09/21 20:25:14;;;;;;;5.60;5.30;;;;;;;;;;6172388;23;20391;-89
2022/09/21 20:28:11;;;;;;;;;;;;;;;;;;;;;
2022/09/21 20:30:44;;;;;;;6.60;6.20;;;;;;;;;;6203205;23;20376;-91
2022/09/21 20:33:30;;;;;;;8.33;6.33;;;;;;;;;;6168991;23;20423;-91
2022/09/21 20:36:04;;;;;;;5.47;5.17;;;;;;;;;;6162467;23;20395;-90
2022/09/21 20:38:42;;;;;;;5.50;5.10;;;;;;;;;;6156279;23;20391;-91
2022/09/21 20:41:16;;;;;;;6.00;5.70;;;;;;;;;;6156119;23;20820;-91
2022/09/21 20:43:44;;;;;;;6.63;5.87;;;;;;;;;;6157289;23;20395;-91
2022/09/21 20:46:10;;;;;;;9.23;5.90;;;;;;;;;;6156075;23;20486;-91
2022/09/21 20:49:07;;;;;;;6.40;5.80;;;;;;;;;;6154761;23;20396;-90
2022/09/21 20:51:58;;;;;;;5.60;5.30;;;;;;;;;;6028273;23;20424;-91
2022/09/21 20:54:46;;;;;;;6.17;5.67;;;;;;;;;;6158192;23;20866;-92
2022/09/21 20:57:50;;;;;;;6.47;6.07;;;;;;;;;;6158398;23;20988;-92
2022/09/21 21:37:00;;;;;;;7.10;6.50;;;;;;;;;;6204882;22;21372;-91
2022/09/21 21:39:51;;;;;;;6.60;5.97;;;;;;;;;;6204706;23;20393;-90
2022/09/21 21:42:30;;;;;;;8.50;7.40;;;;;;;;;;6214844;23;20500;-92
2022/09/21 21:44:59;;;;;;;7.03;6.33;;;;;;;;;;6216299;23;20401;-91
2022/09/21 21:47:28;;;;;;;9.95;6.55;;;;;;;;;;6213974;23;20405;-91
2022/09/21 21:50:03;;;;;;;6.53;6.00;;;;;;;;;;6215993;23;20671;-92
2022/09/21 21:52:29;;;;;;;6.47;5.90;;;;;;;;;;6215049;23;20538;-91
2022/09/21 21:55:01;;;;;;;5.33;5.10;;;;;;;;;;6217293;23;20401;-92
2022/09/21 21:57:27;;;;;;;6.97;6.57;;;;;;;;;;6215289;23;20388;-91
2022/09/21 22:11:03;;;;;;;4.57;4.40;;;;;;;;;;6184407;23;20396;-92
2022/09/21 22:14:12;;;;;;;4.97;4.77;;;;;;;;;;6204191;23;20423;-92
2022/09/21 22:46:43;;;;;;;6.15;4.80;;;;;;;;;;6268341;23;20442;-92
2022/09/21 22:49:11;;;;;;;5.40;4.80;;;;;;;;;;6240495;23;20161;-92
2022/09/21 22:51:45;;;;;;;5.10;4.70;;;;;;;;;;6265555;22;20143;-91